sensor_id;sensor_type;location;lat;lon;timestamp;pressure;altitude;pressure_sealevel;temperature;humidity
18985;BME280;9626;52.552;13.436;2023-02-18T00:00:14;100845.63;;;6.19;100.00
18985;BME280;9626;52.552;13.436;2023-02-18T00:02:43;100838.63;;;6.14;100.00
18985;BME280;9626;52.552;13.436;2023-02-18T00:05:09;100845.59;;;6.15;100.00
18985;BME280;9626;52.552;13.436;2023-02-18T00:07:36;100842.09;;;6.17;100.00
18985;BME280;9626;52.552;13.436;2023-02-18T00:10:04;100836.84;;;6.13;100.00
18985;BME280;9626;52.552;13.436;2023-02-18T00:12:32;100832.47;;;6.13;100.00
18985;BME280;9626;52.552;13.436;2023-02-18T00:14:58;100837.72;;;6.10;100.00
18985;BME280;9626;52.552;13.436;2023-02-18T00:17:24;100845.59;;;6.12;100.00
18985;BME280;9626;52.552;13.436;2023-02-18T00:19:50;100840.34;;;6.12;100.00
18985;BME280;9626;52.552;13.436;2023-02-18T00:22:17;100849.09;;;6.09;100.00
18985;BME280;9626;52.552;13.436;2023-02-18T00:24:43;100848.25;;;6.05;100.00
18985;BME280;9626;52.552;13.436;2023-02-18T00:27:09;100858.72;;;6.04;100.00
18985;BME280;9626;52.552;13.436;2023-02-18T00:29:35;100855.25;;;6.00;100.00
18985;BME280;9626;52.552;13.436;2023-02-18T00:32:01;100855.25;;;6.00;100.00
18985;BME280;9626;52.552;13.436;2023-02-18T00:34:27;100852.59;;;5.97;100.00
18985;BME280;9626;52.552;13.436;2023-02-18T00:36:53;100857.81;;;5.92;100.00
18985;BME280;9626;52.552;13.436;2023-02-18T00:39:19;100857.81;;;5.91;100.00
18985;BME280;9626;52.552;13.436;2023-02-18T00:41:45;100864.81;;;5.86;100.00
18985;BME280;9626;52.552;13.436;2023-02-18T00:44:11;100869.19;;;5.84;100.00
18985;BME280;9626;52.552;13.436;2023-02-18T00:46:38;100880.56;;;5.84;100.00
18985;BME280;9626;52.552;13.436;2023-02-18T00:49:04;100880.56;;;5.80;100.00
18985;BME280;9626;52.552;13.436;2023-02-18T00:51:31;100880.53;;;5.76;100.00
18985;BME280;9626;52.552;13.436;2023-02-18T00:53:57;100888.41;;;5.75;100.00
18985;BME280;9626;52.552;13.436;2023-02-18T00:56:23;100883.16;;;5.72;100.00
18985;BME280;9626;52.552;13.436;2023-02-18T00:58:49;100897.16;;;5.69;100.00
18985;BME280;9626;52.552;13.436;2023-02-18T01:01:15;100892.78;;;5.65;100.00
18985;BME280;9626;52.552;13.436;2023-02-18T01:03:42;100892.78;;;5.65;100.00
18985;BME280;9626;52.552;13.436;2023-02-18T01:06:09;100882.25;;;5.62;100.00
18985;BME280;9626;52.552;13.436;2023-02-18T01:08:36;100890.09;;;5.57;100.00
18985;BME280;9626;52.552;13.436;2023-02-18T01:11:21;100888.34;;;5.53;100.00
18985;BME280;9626;52.552;13.436;2023-02-18T01:14:05;100881.34;;;5.51;100.00
18985;BME280;9626;52.552;13.436;2023-02-18T01:16:49;100874.34;;;5.53;100.00
18985;BME280;9626;52.552;13.436;2023-02-18T01:19:15;100880.44;;;5.47;100.00
18985;BME280;9626;52.552;13.436;2023-02-18T01:21:41;100869.06;;;5.48;100.00
18985;BME280;9626;52.552;13.436;2023-02-18T01:24:07;100879.59;;;5.50;100.00
18985;BME280;9626;52.552;13.436;2023-02-18T01:26:34;100879.53;;;5.47;100.00
18985;BME280;9626;52.552;13.436;2023-02-18T01:29:00;100881.31;;;5.49;100.00
18985;BME280;9626;52.552;13.436;2023-02-18T01:31:26;100884.78;;;5.42;100.00
18985;BME280;9626;52.552;13.436;2023-02-18T01:33:52;100886.56;;;5.40;100.00
18985;BME280;9626;52.552;13.436;2023-02-18T01:36:18;100883.06;;;5.44;100.00
18985;BME280;9626;52.552;13.436;2023-02-18T01:38:44;100882.16;;;5.44;100.00
18985;BME280;9626;52.552;13.436;2023-02-18T01:41:10;100872.53;;;5.41;100.00
18985;BME280;9626;52.552;13.436;2023-02-18T01:43:37;100876.06;;;5.43;100.00
18985;BME280;9626;52.552;13.436;2023-02-18T01:46:22;100883.88;;;5.35;100.00
18985;BME280;9626;52.552;13.436;2023-02-18T01:48:55;100883.03;;;5.38;100.00
18985;BME280;9626;52.552;13.436;2023-02-18T01:51:26;100889.19;;;5.41;100.00
18985;BME280;9626;52.552;13.436;2023-02-18T01:56:31;100891.81;;;5.41;100.00
18985;BME280;9626;52.552;13.436;2023-02-18T01:59:02;100887.41;;;5.39;100.00
18985;BME280;9626;52.552;13.436;2023-02-18T02:01:30;100883.88;;;5.38;100.00
18985;BME280;9626;52.552;13.436;2023-02-18T02:03:57;100888.28;;;5.38;100.00
18985;BME280;9626;52.552;13.436;2023-02-18T02:06:24;100884.75;;;5.33;100.00
18985;BME280;9626;52.552;13.436;2023-02-18T02:08:54;100887.34;;;5.30;100.00
18985;BME280;9626;52.552;13.436;2023-02-18T02:16:31;100897.88;;;5.31;100.00
18985;BME280;9626;52.552;13.436;2023-02-18T02:22:02;100897.91;;;5.37;100.00
18985;BME280;9626;52.552;13.436;2023-02-18T02:25:27;100887.41;;;5.36;100.00
18985;BME280;9626;52.552;13.436;2023-02-18T02:27:54;100896.09;;;5.30;100.00
18985;BME280;9626;52.552;13.436;2023-02-18T02:30:52;100900.50;;;5.31;100.00
18985;BME280;9626;52.552;13.436;2023-02-18T02:36:36;100895.22;;;5.25;100.00
18985;BME280;9626;52.552;13.436;2023-02-18T02:39:16;100902.25;;;5.29;100.00
18985;BME280;9626;52.552;13.436;2023-02-18T02:50:37;100901.34;;;5.27;100.00
18985;BME280;9626;52.552;13.436;2023-02-18T02:53:13;100885.59;;;5.24;100.00
18985;BME280;9626;52.552;13.436;2023-02-18T02:55:40;100902.19;;;5.23;100.00
18985;BME280;9626;52.552;13.436;2023-02-18T02:58:09;100903.97;;;5.24;100.00
18985;BME280;9626;52.552;13.436;2023-02-18T03:16:26;100894.31;;;5.17;100.00
18985;BME280;9626;52.552;13.436;2023-02-18T03:19:23;100894.31;;;5.17;100.00
18985;BME280;9626;52.552;13.436;2023-02-18T03:22:22;100894.31;;;5.17;100.00
18985;BME280;9626;52.552;13.436;2023-02-18T03:24:52;100897.78;;;5.16;100.00
18985;BME280;9626;52.552;13.436;2023-02-18T03:27:24;100892.56;;;5.19;100.00
18985;BME280;9626;52.552;13.436;2023-02-18T03:29:55;100896.94;;;5.17;100.00
18985;BME280;9626;52.552;13.436;2023-02-18T03:32:24;100889.00;;;5.14;100.00
18985;BME280;9626;52.552;13.436;2023-02-18T03:34:56;100886.41;;;5.15;100.00
18985;BME280;9626;52.552;13.436;2023-02-18T03:37:25;100881.13;;;5.15;100.00
18985;BME280;9626;52.552;13.436;2023-02-18T03:39:55;100882.94;;;5.21;100.00
18985;BME280;9626;52.552;13.436;2023-02-18T03:42:59;100892.56;;;5.19;100.00
18985;BME280;9626;52.552;13.436;2023-02-18T03:45:26;100883.81;;;5.21;100.00
18985;BME280;9626;52.552;13.436;2023-02-18T03:47:52;100887.31;;;5.22;100.00
18985;BME280;9626;52.552;13.436;2023-02-18T03:50:18;100888.22;;;5.22;100.00
18985;BME280;9626;52.552;13.436;2023-02-18T03:52:45;100881.19;;;5.18;100.00
18985;BME280;9626;52.552;13.436;2023-02-18T03:55:11;100878.56;;;5.17;100.00
18985;BME280;9626;52.552;13.436;2023-02-18T03:57:37;100880.28;;;5.19;100.00
18985;BME280;9626;52.552;13.436;2023-02-18T04:00:04;100890.78;;;5.18;100.00
18985;BME280;9626;52.552;13.436;2023-02-18T04:02:32;100890.78;;;5.15;100.00
18985;BME280;9626;52.552;13.436;2023-02-18T04:04:58;100896.03;;;5.18;100.00
18985;BME280;9626;52.552;13.436;2023-02-18T04:07:25;100901.28;;;5.18;100.00
18985;BME280;9626;52.552;13.436;2023-02-18T04:09:51;100900.41;;;5.16;100.00
18985;BME280;9626;52.552;13.436;2023-02-18T04:12:17;100896.94;;;5.17;100.00
18985;BME280;9626;52.552;13.436;2023-02-18T04:14:43;100897.78;;;5.13;100.00
18985;BME280;9626;52.552;13.436;2023-02-18T04:17:09;100894.25;;;5.14;100.00
18985;BME280;9626;52.552;13.436;2023-02-18T04:19:35;100901.28;;;5.12;100.00
18985;BME280;9626;52.552;13.436;2023-02-18T04:22:01;100898.63;;;5.08;100.00
18985;BME280;9626;52.552;13.436;2023-02-18T04:24:27;100908.25;;;5.10;100.00
18985;BME280;9626;52.552;13.436;2023-02-18T04:26:53;100910.00;;;5.07;100.00
18985;BME280;9626;52.552;13.436;2023-02-18T04:29:19;100908.22;;;5.05;100.00
18985;BME280;9626;52.552;13.436;2023-02-18T04:31:45;100910.84;;;5.06;100.00
18985;BME280;9626;52.552;13.436;2023-02-18T04:34:14;100914.31;;;5.01;100.00
18985;BME280;9626;52.552;13.436;2023-02-18T04:36:41;100916.94;;;4.99;100.00
18985;BME280;9626;52.552;13.436;2023-02-18T04:39:07;100930.91;;;4.95;100.00
18985;BME280;9626;52.552;13.436;2023-02-18T04:41:33;100919.56;;;4.98;100.00
18985;BME280;9626;52.552;13.436;2023-02-18T04:44:00;100923.91;;;5.00;100.00
18985;BME280;9626;52.552;13.436;2023-02-18T04:46:26;100921.28;;;4.97;100.00
18985;BME280;9626;52.552;13.436;2023-02-18T04:48:52;100921.28;;;4.96;100.00
18985;BME280;9626;52.552;13.436;2023-02-18T04:51:18;100919.50;;;4.96;100.00
18985;BME280;9626;52.552;13.436;2023-02-18T04:53:44;100912.53;;;4.95;100.00
18985;BME280;9626;52.552;13.436;2023-02-18T04:56:10;100923.91;;;4.97;100.00
18985;BME280;9626;52.552;13.436;2023-02-18T04:58:36;100927.38;;;4.91;100.00
18985;BME280;9626;52.552;13.436;2023-02-18T05:01:03;100923.03;;;4.94;100.00
18985;BME280;9626;52.552;13.436;2023-02-18T05:03:30;100923.84;;;4.88;100.00
18985;BME280;9626;52.552;13.436;2023-02-18T05:05:56;100926.50;;;4.91;100.00
18985;BME280;9626;52.552;13.436;2023-02-18T05:08:22;100927.38;;;4.90;100.00
18985;BME280;9626;52.552;13.436;2023-02-18T05:10:48;100923.88;;;4.91;100.00
18985;BME280;9626;52.552;13.436;2023-02-18T05:13:15;100913.34;;;4.88;100.00
18985;BME280;9626;52.552;13.436;2023-02-18T05:15:41;100918.63;;;4.91;100.00
18985;BME280;9626;52.552;13.436;2023-02-18T05:18:07;100917.75;;;4.92;100.00
18985;BME280;9626;52.552;13.436;2023-02-18T05:20:36;100917.75;;;4.92;100.00
18985;BME280;9626;52.552;13.436;2023-02-18T05:23:02;100930.91;;;4.94;100.00
18985;BME280;9626;52.552;13.436;2023-02-18T05:25:28;100927.44;;;4.99;100.00
18985;BME280;9626;52.552;13.436;2023-02-18T05:27:54;100918.66;;;5.00;100.00
18985;BME280;9626;52.552;13.436;2023-02-18T05:30:20;100911.69;;;5.02;100.00
18985;BME280;9626;52.552;13.436;2023-02-18T05:32:49;100910.84;;;5.05;100.00
18985;BME280;9626;52.552;13.436;2023-02-18T05:35:15;100911.75;;;5.08;100.00
18985;BME280;9626;52.552;13.436;2023-02-18T05:37:41;100900.34;;;5.08;100.00
18985;BME280;9626;52.552;13.436;2023-02-18T05:40:07;100909.16;;;5.13;100.00
18985;BME280;9626;52.552;13.436;2023-02-18T05:42:33;100905.63;;;5.10;100.00
18985;BME280;9626;52.552;13.436;2023-02-18T05:44:59;100911.78;;;5.15;100.00
18985;BME280;9626;52.552;13.436;2023-02-18T05:47:25;100907.44;;;5.17;100.00
18985;BME280;9626;52.552;13.436;2023-02-18T05:49:51;100896.94;;;5.20;100.00
18985;BME280;9626;52.552;13.436;2023-02-18T05:52:17;100901.34;;;5.24;100.00
18985;BME280;9626;52.552;13.436;2023-02-18T05:54:43;100904.88;;;5.29;100.00
18985;BME280;9626;52.552;13.436;2023-02-18T05:57:11;100914.47;;;5.27;100.00
18985;BME280;9626;52.552;13.436;2023-02-18T05:59:38;100912.75;;;5.28;100.00
18985;BME280;9626;52.552;13.436;2023-02-18T06:02:04;100907.50;;;5.29;100.00
18985;BME280;9626;52.552;13.436;2023-02-18T06:04:30;100903.97;;;5.30;100.00
18985;BME280;9626;52.552;13.436;2023-02-18T06:06:56;100908.38;;;5.31;100.00
18985;BME280;9626;52.552;13.436;2023-02-18T06:09:22;100916.25;;;5.33;100.00
18985;BME280;9626;52.552;13.436;2023-02-18T06:11:48;100916.28;;;5.36;100.00
18985;BME280;9626;52.552;13.436;2023-02-18T06:14:19;100914.53;;;5.39;100.00
18985;BME280;9626;52.552;13.436;2023-02-18T06:16:45;100904.03;;;5.41;100.00
18985;BME280;9626;52.552;13.436;2023-02-18T06:19:11;100901.47;;;5.46;100.00
18985;BME280;9626;52.552;13.436;2023-02-18T06:21:37;100911.09;;;5.50;100.00
18985;BME280;9626;52.552;13.436;2023-02-18T06:24:03;100908.44;;;5.47;100.00
18985;BME280;9626;52.552;13.436;2023-02-18T06:26:30;100904.09;;;5.50;100.00
18985;BME280;9626;52.552;13.436;2023-02-18T06:28:56;100908.47;;;5.53;100.00
18985;BME280;9626;52.552;13.436;2023-02-18T06:31:22;100924.25;;;5.56;100.00
18985;BME280;9626;52.552;13.436;2023-02-18T06:33:47;100909.38;;;5.55;100.00
18985;BME280;9626;52.552;13.436;2023-02-18T06:36:14;100906.75;;;5.55;100.00
18985;BME280;9626;52.552;13.436;2023-02-18T06:38:42;100908.50;;;5.56;100.00
18985;BME280;9626;52.552;13.436;2023-02-18T06:41:09;100905.91;;;5.59;100.00
18985;BME280;9626;52.552;13.436;2023-02-18T06:43:35;100907.63;;;5.58;100.00
18985;BME280;9626;52.552;13.436;2023-02-18T06:46:02;100896.25;;;5.58;100.00
18985;BME280;9626;52.552;13.436;2023-02-18T06:48:29;100898.03;;;5.62;100.00
18985;BME280;9626;52.552;13.436;2023-02-18T06:50:56;100891.00;;;5.61;100.00
18985;BME280;9626;52.552;13.436;2023-02-18T06:53:22;100886.66;;;5.63;100.00
18985;BME280;9626;52.552;13.436;2023-02-18T06:55:48;100884.88;;;5.67;100.00
18985;BME280;9626;52.552;13.436;2023-02-18T06:58:14;100899.78;;;5.66;100.00
18985;BME280;9626;52.552;13.436;2023-02-18T07:00:40;100892.81;;;5.71;100.00
18985;BME280;9626;52.552;13.436;2023-02-18T07:03:07;100892.81;;;5.74;100.00
18985;BME280;9626;52.552;13.436;2023-02-18T07:05:33;100894.56;;;5.75;100.00
18985;BME280;9626;52.552;13.436;2023-02-18T07:08:00;100891.06;;;5.76;100.00
18985;BME280;9626;52.552;13.436;2023-02-18T07:10:26;100888.44;;;5.78;100.00
18985;BME280;9626;52.552;13.436;2023-02-18T07:12:52;100882.31;;;5.81;100.00
18985;BME280;9626;52.552;13.436;2023-02-18T07:15:18;100882.34;;;5.82;100.00
18985;BME280;9626;52.552;13.436;2023-02-18T07:17:50;100877.94;;;5.84;100.00
18985;BME280;9626;52.552;13.436;2023-02-18T07:20:19;100880.56;;;5.87;100.00
18985;BME280;9626;52.552;13.436;2023-02-18T07:22:45;100878.84;;;5.88;100.00
18985;BME280;9626;52.552;13.436;2023-02-18T07:25:12;100874.44;;;5.87;100.00
18985;BME280;9626;52.552;13.436;2023-02-18T07:27:38;100859.53;;;5.89;100.00
18985;BME280;9626;52.552;13.436;2023-02-18T07:30:04;100864.84;;;5.90;100.00
18985;BME280;9626;52.552;13.436;2023-02-18T07:32:31;100871.84;;;5.96;100.00
18985;BME280;9626;52.552;13.436;2023-02-18T07:34:57;100874.47;;;5.96;100.00
18985;BME280;9626;52.552;13.436;2023-02-18T07:37:23;100873.66;;;6.00;100.00
18985;BME280;9626;52.552;13.436;2023-02-18T07:39:49;100871.88;;;6.01;100.00
18985;BME280;9626;52.552;13.436;2023-02-18T07:42:15;100864.00;;;6.02;100.00
18985;BME280;9626;52.552;13.436;2023-02-18T07:44:41;100861.41;;;6.05;100.00
18985;BME280;9626;52.552;13.436;2023-02-18T07:47:08;100850.00;;;6.11;100.00
18985;BME280;9626;52.552;13.436;2023-02-18T07:49:35;100845.59;;;6.12;100.00
18985;BME280;9626;52.552;13.436;2023-02-18T07:52:01;100857.03;;;6.15;100.00
18985;BME280;9626;52.552;13.436;2023-02-18T07:54:27;100852.63;;;6.16;100.00
18985;BME280;9626;52.552;13.436;2023-02-18T07:56:53;100841.22;;;6.11;100.00
18985;BME280;9626;52.552;13.436;2023-02-18T07:59:22;100843.84;;;6.11;100.00
18985;BME280;9626;52.552;13.436;2023-02-18T08:01:48;100836.84;;;6.05;100.00
18985;BME280;9626;52.552;13.436;2023-02-18T08:04:14;100853.50;;;6.05;100.00
18985;BME280;9626;52.552;13.436;2023-02-18T08:06:43;100843.84;;;6.04;100.00
18985;BME280;9626;52.552;13.436;2023-02-18T08:09:14;100838.56;;;5.98;100.00
18985;BME280;9626;52.552;13.436;2023-02-18T08:11:40;100835.97;;;6.04;100.00
18985;BME280;9626;52.552;13.436;2023-02-18T08:14:06;100828.03;;;5.95;100.00
18985;BME280;9626;52.552;13.436;2023-02-18T08:16:33;100817.50;;;5.87;100.00
18985;BME280;9626;52.552;13.436;2023-02-18T08:18:59;100813.13;;;5.89;100.00
18985;BME280;9626;52.552;13.436;2023-02-18T08:21:26;100814.00;;;5.87;100.00
18985;BME280;9626;52.552;13.436;2023-02-18T08:23:52;100815.75;;;5.88;100.00
18985;BME280;9626;52.552;13.436;2023-02-18T08:26:19;100797.38;;;5.88;100.00
18985;BME280;9626;52.552;13.436;2023-02-18T08:28:46;100813.13;;;5.89;100.00
18985;BME280;9626;52.552;13.436;2023-02-18T08:33:46;100803.47;;;5.81;100.00
18985;BME280;9626;52.552;13.436;2023-02-18T08:36:12;100806.97;;;5.75;100.00
18985;BME280;9626;52.552;13.436;2023-02-18T08:38:38;100799.09;;;5.70;100.00
18985;BME280;9626;52.552;13.436;2023-02-18T08:41:06;100789.44;;;5.72;100.00
18985;BME280;9626;52.552;13.436;2023-02-18T08:43:32;100785.94;;;5.76;100.00
18985;BME280;9626;52.552;13.436;2023-02-18T08:45:58;100793.84;;;5.78;100.00
18985;BME280;9626;52.552;13.436;2023-02-18T08:48:26;100785.06;;;5.76;100.00
18985;BME280;9626;52.552;13.436;2023-02-18T08:50:52;100803.44;;;5.65;100.00
18985;BME280;9626;52.552;13.436;2023-02-18T08:53:18;100796.44;;;5.58;100.00
18985;BME280;9626;52.552;13.436;2023-02-18T08:55:44;100794.66;;;5.57;100.00
18985;BME280;9626;52.552;13.436;2023-02-18T08:58:11;100792.94;;;5.59;100.00
18985;BME280;9626;52.552;13.436;2023-02-18T09:00:38;100788.50;;;5.53;100.00
18985;BME280;9626;52.552;13.436;2023-02-18T09:03:05;100782.38;;;5.47;100.00
18985;BME280;9626;52.552;13.436;2023-02-18T09:05:31;100776.25;;;5.45;100.00
18985;BME280;9626;52.552;13.436;2023-02-18T09:07:57;100772.72;;;5.36;100.00
18985;BME280;9626;52.552;13.436;2023-02-18T09:10:23;100786.72;;;5.35;100.00
18985;BME280;9626;52.552;13.436;2023-02-18T09:12:49;100784.09;;;5.32;100.00
18985;BME280;9626;52.552;13.436;2023-02-18T09:15:15;100774.41;;;5.20;100.00
18985;BME280;9626;52.552;13.436;2023-02-18T09:17:41;100761.28;;;5.22;100.00
18985;BME280;9626;52.552;13.436;2023-02-18T09:20:08;100764.78;;;5.15;100.00
18985;BME280;9626;52.552;13.436;2023-02-18T09:22:34;100758.63;;;5.10;100.00
18985;BME280;9626;52.552;13.436;2023-02-18T09:25:00;100731.50;;;5.14;100.00
18985;BME280;9626;52.552;13.436;2023-02-18T09:27:26;100751.66;;;5.15;100.00
18985;BME280;9626;52.552;13.436;2023-02-18T09:29:52;100750.75;;;5.06;100.00
18985;BME280;9626;52.552;13.436;2023-02-18T09:32:18;100747.25;;;5.14;100.00
18985;BME280;9626;52.552;13.436;2023-02-18T09:34:44;100754.28;;;5.18;100.00
18985;BME280;9626;52.552;13.436;2023-02-18T09:37:10;100744.63;;;5.14;100.00
18985;BME280;9626;52.552;13.436;2023-02-18T09:39:36;100742.03;;;5.17;100.00
18985;BME280;9626;52.552;13.436;2023-02-18T09:42:14;100732.41;;;5.16;100.00
18985;BME280;9626;52.552;13.436;2023-02-18T09:44:48;100717.50;;;5.12;100.00
18985;BME280;9626;52.552;13.436;2023-02-18T09:49:59;100704.38;;;5.18;100.00
18985;BME280;9626;52.552;13.436;2023-02-18T09:52:31;100703.56;;;5.25;100.00
18985;BME280;9626;52.552;13.436;2023-02-18T09:54:58;100687.78;;;5.22;100.00
18985;BME280;9626;52.552;13.436;2023-02-18T09:57:25;100671.16;;;5.18;100.00
18985;BME280;9626;52.552;13.436;2023-02-18T09:59:59;100677.28;;;5.19;100.00
18985;BME280;9626;52.552;13.436;2023-02-18T10:02:26;100682.53;;;5.16;100.00
18985;BME280;9626;52.552;13.436;2023-02-18T10:04:53;100670.28;;;5.12;100.00
18985;BME280;9626;52.552;13.436;2023-02-18T10:07:26;100670.28;;;5.08;100.00
18985;BME280;9626;52.552;13.436;2023-02-18T10:09:53;100658.00;;;5.11;100.00
18985;BME280;9626;52.552;13.436;2023-02-18T10:12:22;100669.38;;;5.05;100.00
18985;BME280;9626;52.552;13.436;2023-02-18T10:14:54;100667.56;;;4.90;100.00
18985;BME280;9626;52.552;13.436;2023-02-18T10:17:23;100659.69;;;4.93;100.00
18985;BME280;9626;52.552;13.436;2023-02-18T10:19:51;100657.13;;;5.02;100.00
18985;BME280;9626;52.552;13.436;2023-02-18T10:22:23;100645.75;;;5.02;100.00
18985;BME280;9626;52.552;13.436;2023-02-18T10:24:59;100652.72;;;5.01;100.00
18985;BME280;9626;52.552;13.436;2023-02-18T10:27:33;100630.00;;;5.02;100.00
18985;BME280;9626;52.552;13.436;2023-02-18T10:32:35;100615.16;;;5.08;100.00
18985;BME280;9626;52.552;13.436;2023-02-18T10:35:16;100602.03;;;5.12;100.00
18985;BME280;9626;52.552;13.436;2023-02-18T10:37:53;100598.50;;;5.06;100.00
18985;BME280;9626;52.552;13.436;2023-02-18T10:40:50;100578.41;;;5.10;100.00
18985;BME280;9626;52.552;13.436;2023-02-18T10:43:37;100564.38;;;5.05;100.00
18985;BME280;9626;52.552;13.436;2023-02-18T10:46:21;100556.50;;;5.05;100.00
18985;BME280;9626;52.552;13.436;2023-02-18T10:51:23;100545.13;;;5.04;100.00
18985;BME280;9626;52.552;13.436;2023-02-18T10:53:52;100539.00;;;5.02;100.00
18985;BME280;9626;52.552;13.436;2023-02-18T10:56:39;100536.38;;;5.04;100.00
18985;BME280;9626;52.552;13.436;2023-02-18T10:59:18;100532.03;;;5.06;100.00
18985;BME280;9626;52.552;13.436;2023-02-18T11:01:53;100525.00;;;5.06;100.00
18985;BME280;9626;52.552;13.436;2023-02-18T11:04:25;100513.63;;;5.12;100.00
18985;BME280;9626;52.552;13.436;2023-02-18T11:06:51;100513.66;;;5.20;100.00
18985;BME280;9626;52.552;13.436;2023-02-18T11:09:32;100498.78;;;5.03;100.00
18985;BME280;9626;52.552;13.436;2023-02-18T11:12:02;100488.28;;;5.06;100.00
18985;BME280;9626;52.552;13.436;2023-02-18T11:14:40;100465.53;;;5.12;100.00
18985;BME280;9626;52.552;13.436;2023-02-18T11:19:54;100447.16;;;5.13;100.00
18985;BME280;9626;52.552;13.436;2023-02-18T11:24:53;100445.41;;;5.18;100.00
18985;BME280;9626;52.552;13.436;2023-02-18T11:27:36;100432.28;;;5.17;100.00
18985;BME280;9626;52.552;13.436;2023-02-18T11:30:16;100443.66;;;5.16;100.00
18985;BME280;9626;52.552;13.436;2023-02-18T11:32:47;100435.78;;;5.10;100.00
18985;BME280;9626;52.552;13.436;2023-02-18T11:35:23;100416.53;;;5.09;100.00
18985;BME280;9626;52.552;13.436;2023-02-18T11:37:50;100414.78;;;5.14;100.00
18985;BME280;9626;52.552;13.436;2023-02-18T11:40:23;100401.63;;;5.17;100.00
18985;BME280;9626;52.552;13.436;2023-02-18T11:42:49;100384.13;;;5.22;100.00
18985;BME280;9626;52.552;13.436;2023-02-18T11:45:27;100399.00;;;5.25;100.00
18985;BME280;9626;52.552;13.436;2023-02-18T11:47:59;100393.75;;;5.28;100.00
18985;BME280;9626;52.552;13.436;2023-02-18T11:50:30;100369.28;;;5.18;100.00
18985;BME280;9626;52.552;13.436;2023-02-18T11:52:57;100385.88;;;5.19;100.00
18985;BME280;9626;52.552;13.436;2023-02-18T11:55:27;100370.97;;;5.33;100.00
18985;BME280;9626;52.552;13.436;2023-02-18T11:58:00;100364.84;;;5.33;100.00
18985;BME280;9626;52.552;13.436;2023-02-18T12:03:16;100344.69;;;5.38;100.00
18985;BME280;9626;52.552;13.436;2023-02-18T12:05:47;100335.88;;;5.47;100.00
18985;BME280;9626;52.552;13.436;2023-02-18T12:08:19;100332.38;;;5.54;100.00
18985;BME280;9626;52.552;13.436;2023-02-18T12:10:49;100335.81;;;5.65;100.00
18985;BME280;9626;52.552;13.436;2023-02-18T12:13:30;100314.75;;;5.74;100.00
18985;BME280;9626;52.552;13.436;2023-02-18T12:25:03;100304.81;;;6.26;100.00
18985;BME280;9626;52.552;13.436;2023-02-18T12:32:41;100294.00;;;6.55;100.00
18985;BME280;9626;52.552;13.436;2023-02-18T12:38:32;100282.34;;;6.86;100.00
18985;BME280;9626;52.552;13.436;2023-02-18T12:41:12;100284.81;;;6.97;100.00
18985;BME280;9626;52.552;13.436;2023-02-18T12:46:52;100279.25;;;7.23;100.00
18985;BME280;9626;52.552;13.436;2023-02-18T12:52:50;100261.28;;;7.54;100.00
18985;BME280;9626;52.552;13.436;2023-02-18T13:09:37;100245.13;;;8.32;100.00
18985;BME280;9626;52.552;13.436;2023-02-18T13:12:20;100223.91;;;8.38;100.00
18985;BME280;9626;52.552;13.436;2023-02-18T13:15:15;100220.19;;;8.52;100.00
18985;BME280;9626;52.552;13.436;2023-02-18T13:17:39;100221.97;;;8.51;100.00
18985;BME280;9626;52.552;13.436;2023-02-18T13:20:33;100210.31;;;8.63;100.00
18985;BME280;9626;52.552;13.436;2023-02-18T13:23:00;100213.00;;;8.60;100.00
18985;BME280;9626;52.552;13.436;2023-02-18T13:25:27;100204.09;;;8.66;100.00
18985;BME280;9626;52.552;13.436;2023-02-18T13:28:19;100208.41;;;8.70;100.00
18985;BME280;9626;52.552;13.436;2023-02-18T13:31:09;100212.00;;;8.67;100.00
18985;BME280;9626;52.552;13.436;2023-02-18T13:39:03;100219.19;;;8.59;100.00
18985;BME280;9626;52.552;13.436;2023-02-18T13:41:39;100210.31;;;8.63;100.00
18985;BME280;9626;52.552;13.436;2023-02-18T13:46:56;100206.47;;;8.78;100.00
18985;BME280;9626;52.552;13.436;2023-02-18T13:49:25;100206.44;;;8.81;100.00
18985;BME280;9626;52.552;13.436;2023-02-18T13:51:54;100189.66;;;8.84;100.00
18985;BME280;9626;52.552;13.436;2023-02-18T13:54:31;100207.28;;;8.82;100.00
18985;BME280;9626;52.552;13.436;2023-02-18T13:57:20;100198.53;;;8.81;100.00
18985;BME280;9626;52.552;13.436;2023-02-18T13:59:48;100200.22;;;8.84;100.00
18985;BME280;9626;52.552;13.436;2023-02-18T14:31:24;100198.47;;;8.83;100.00
18985;BME280;9626;52.552;13.436;2023-02-18T14:39:36;100180.97;;;8.78;100.00
18985;BME280;9626;52.552;13.436;2023-02-18T14:42:37;100187.78;;;8.89;100.00
18985;BME280;9626;52.552;13.436;2023-02-18T14:48:01;100214.19;;;8.89;100.00
18985;BME280;9626;52.552;13.436;2023-02-18T14:50:38;100221.34;;;8.84;100.00
18985;BME280;9626;52.552;13.436;2023-02-18T14:53:14;100216.91;;;8.86;100.00
18985;BME280;9626;52.552;13.436;2023-02-18T14:55:46;100223.06;;;8.85;100.00
18985;BME280;9626;52.552;13.436;2023-02-18T14:58:35;100218.63;;;8.87;100.00
18985;BME280;9626;52.552;13.436;2023-02-18T15:01:29;100209.78;;;8.89;100.00
18985;BME280;9626;52.552;13.436;2023-02-18T15:03:55;100230.13;;;8.84;100.00
18985;BME280;9626;52.552;13.436;2023-02-18T15:09:12;100225.78;;;8.82;100.00
18985;BME280;9626;52.552;13.436;2023-02-18T15:11:46;100226.63;;;8.84;100.00
18985;BME280;9626;52.552;13.436;2023-02-18T15:14:17;100214.41;;;8.79;100.00
18985;BME280;9626;52.552;13.436;2023-02-18T15:16:44;100218.00;;;8.74;100.00
18985;BME280;9626;52.552;13.436;2023-02-18T15:19:18;100226.81;;;8.74;100.00
18985;BME280;9626;52.552;13.436;2023-02-18T15:21:46;100222.41;;;8.73;100.00
18985;BME280;9626;52.552;13.436;2023-02-18T15:24:29;100222.50;;;8.70;100.00
18985;BME280;9626;52.552;13.436;2023-02-18T15:27:01;100232.16;;;8.71;100.00